createdAt,value
2023-03-29T00:02:36.306Z,1.06
2023-03-29T00:06:41.948Z,1.08
2023-03-29T00:10:44.597Z,1.06
2023-03-29T00:14:47.364Z,1.12
2023-03-29T00:18:50.022Z,1.14
2023-03-29T00:22:54.034Z,1.18
2023-03-29T00:26:56.692Z,1.15
2023-03-29T00:31:06.582Z,1.06
2023-03-29T00:35:09.851Z,1.04
2023-03-29T00:39:13.833Z,0.98
2023-03-29T00:43:16.978Z,0.96
2023-03-29T00:47:25.911Z,0.98
2023-03-29T00:51:32.090Z,0.94
2023-03-29T00:55:38.785Z,0.96
2023-03-29T00:59:43.315Z,0.93
2023-03-29T01:03:50.944Z,0.91
2023-03-29T01:07:59.096Z,0.85
2023-03-29T01:12:09.904Z,0.79
2023-03-29T01:16:14.988Z,0.76
2023-03-29T01:20:23.077Z,0.74
2023-03-29T01:24:48.178Z,0.90
2023-03-29T01:28:58.092Z,0.94
2023-03-29T01:33:07.513Z,1.00
2023-03-29T01:37:13.651Z,1.03
2023-03-29T01:41:16.572Z,1.03
2023-03-29T01:45:25.621Z,1.08
2023-03-29T01:49:35.424Z,1.06
2023-03-29T01:53:40.817Z,1.03
2023-03-29T01:57:46.442Z,0.98
2023-03-29T02:01:54.454Z,0.96
2023-03-29T02:05:58.919Z,0.94
2023-03-29T02:10:03.262Z,0.85
2023-03-29T02:14:06.500Z,0.85
2023-03-29T02:18:11.317Z,0.80
2023-03-29T02:22:16.808Z,0.77
2023-03-29T02:26:19.616Z,0.78
2023-03-29T02:30:23.615Z,0.77
2023-03-29T02:34:31.878Z,0.77
2023-03-29T02:38:35.824Z,0.74
2023-03-29T02:42:39.227Z,0.71
2023-03-29T02:46:42.932Z,0.73
2023-03-29T02:50:49.551Z,0.71
2023-03-29T02:54:55.323Z,0.78
2023-03-29T02:58:58.017Z,0.87
2023-03-29T03:03:02.039Z,0.85
2023-03-29T03:07:06.740Z,0.86
2023-03-29T03:11:10.329Z,0.85
2023-03-29T03:15:13.758Z,0.72
2023-03-29T03:19:16.675Z,0.67
2023-03-29T03:23:20.679Z,0.55
2023-03-29T03:27:23.323Z,0.41
2023-03-29T03:31:26.098Z,0.31
2023-03-29T03:35:28.833Z,0.21
2023-03-29T03:39:33.363Z,0.24
2023-03-29T03:43:36.461Z,0.33
2023-03-29T03:47:39.259Z,0.39
2023-03-29T03:51:45.363Z,0.50
2023-03-29T03:55:50.907Z,1.34
2023-03-29T03:59:53.588Z,1.06
2023-03-29T04:03:56.439Z,0.75
2023-03-29T04:07:59.143Z,0.62
2023-03-29T04:12:03.171Z,0.46
2023-03-29T04:16:07.182Z,0.42
2023-03-29T04:20:12.463Z,0.38
2023-03-29T04:24:15.474Z,0.35
2023-03-29T04:28:19.729Z,0.35
2023-03-29T04:32:22.380Z,0.33
2023-03-29T04:36:25.374Z,0.31
2023-03-29T04:40:29.040Z,0.25
2023-03-29T04:44:33.586Z,0.22
2023-03-29T04:48:37.434Z,0.31
2023-03-29T04:52:41.000Z,0.33
2023-03-29T04:56:43.641Z,0.32
2023-03-29T05:00:47.752Z,0.33
2023-03-29T05:04:50.628Z,0.22
2023-03-29T05:08:53.363Z,0.20
2023-03-29T05:12:56.269Z,0.22
2023-03-29T05:17:01.246Z,0.27
2023-03-29T05:21:05.042Z,0.31
2023-03-29T05:25:09.221Z,0.30
2023-03-29T05:29:12.683Z,0.31
2023-03-29T05:33:16.707Z,0.33
2023-03-29T05:37:19.670Z,0.27
2023-03-29T05:41:22.802Z,0.30
2023-03-29T05:45:28.489Z,0.38
2023-03-29T05:49:32.895Z,0.44
2023-03-29T05:53:35.590Z,0.43
2023-03-29T05:57:39.650Z,0.48
2023-03-29T06:01:42.716Z,0.44
2023-03-29T06:05:49.668Z,0.42
2023-03-29T06:09:52.614Z,0.43
2023-03-29T06:13:55.420Z,0.38
2023-03-29T06:17:58.171Z,0.42
2023-03-29T06:22:02.672Z,0.44
2023-03-29T06:26:06.101Z,0.46
2023-03-29T06:30:10.646Z,0.56
2023-03-29T06:34:13.787Z,0.63
2023-03-29T06:38:18.007Z,0.76
2023-03-29T06:42:21.914Z,0.81
2023-03-29T06:46:24.776Z,0.81
2023-03-29T06:50:27.543Z,0.85
2023-03-29T06:54:31.705Z,0.94
2023-03-29T06:58:34.626Z,1.06
2023-03-29T07:02:38.152Z,1.17
2023-03-29T07:06:40.914Z,1.22
2023-03-29T07:10:47.473Z,1.23
2023-03-29T07:14:50.287Z,1.38
2023-03-29T07:18:53.000Z,1.56
2023-03-29T07:22:56.025Z,1.70
2023-03-29T07:27:04.467Z,1.77
2023-03-29T07:31:12.617Z,1.77
2023-03-29T07:35:17.436Z,1.87
2023-03-29T07:39:20.428Z,2.00
2023-03-29T07:43:25.062Z,2.03
2023-03-29T07:47:28.662Z,2.11
2023-03-29T07:51:31.699Z,2.17
2023-03-29T07:55:34.442Z,2.34
2023-03-29T07:59:38.589Z,2.43
2023-03-29T08:03:41.507Z,2.46
2023-03-29T08:07:46.081Z,2.59
2023-03-29T08:11:49.007Z,2.54
2023-03-29T08:15:53.168Z,2.64
2023-03-29T08:19:56.611Z,2.65
2023-03-29T08:23:59.314Z,2.71
2023-03-29T08:28:02.016Z,2.81
2023-03-29T08:32:07.006Z,3.01
2023-03-29T08:36:10.175Z,3.15
2023-03-29T08:40:20.299Z,3.34
2023-03-29T08:44:42.577Z,3.59
2023-03-29T08:48:54.622Z,3.69
2023-03-29T08:53:00.103Z,3.77
2023-03-29T08:57:12.625Z,3.85
2023-03-29T09:01:15.516Z,4.20
2023-03-29T09:05:27.577Z,4.40
2023-03-29T09:09:34.586Z,4.53
2023-03-29T09:13:44.869Z,4.76
2023-03-29T09:18:02.495Z,5.02
2023-03-29T09:22:16.626Z,5.29
2023-03-29T09:26:28.428Z,5.78
2023-03-29T09:30:36.458Z,6.00
2023-03-29T09:34:44.604Z,5.90
2023-03-29T09:38:54.085Z,5.96
2023-03-29T09:42:58.640Z,5.91
2023-03-29T09:47:08.494Z,5.97
2023-03-29T09:51:13.768Z,6.03
2023-03-29T09:55:21.135Z,6.21
2023-03-29T09:59:23.985Z,6.37
2023-03-29T10:03:28.443Z,6.58
2023-03-29T10:07:44.561Z,6.71
2023-03-29T10:11:53.211Z,6.92
2023-03-29T10:16:03.752Z,6.99
2023-03-29T10:20:14.234Z,7.22
2023-03-29T10:24:20.241Z,7.37
2023-03-29T10:28:26.529Z,7.41
2023-03-29T10:32:34.269Z,7.39
2023-03-29T10:36:41.324Z,7.43
2023-03-29T10:40:47.425Z,7.58
2023-03-29T10:44:56.706Z,7.70
2023-03-29T10:49:02.598Z,8.02
2023-03-29T10:53:12.110Z,8.31
2023-03-29T10:57:22.789Z,8.42
2023-03-29T11:01:35.818Z,8.39
2023-03-29T11:05:43.811Z,8.24
2023-03-29T11:09:54.960Z,8.23
2023-03-29T11:14:07.631Z,8.08
2023-03-29T11:18:32.569Z,8.04
2023-03-29T11:22:43.827Z,8.22
2023-03-29T11:26:56.900Z,8.16
2023-03-29T11:31:09.999Z,8.17
2023-03-29T11:35:28.186Z,8.21
2023-03-29T11:39:40.975Z,8.00
2023-03-29T11:43:48.595Z,8.15
2023-03-29T11:47:54.511Z,8.16
2023-03-29T11:52:06.113Z,8.31
2023-03-29T11:56:13.236Z,8.41
2023-03-29T12:00:21.560Z,8.62
2023-03-29T12:04:31.441Z,8.77
2023-03-29T12:08:40.316Z,8.91
2023-03-29T12:12:47.545Z,9.15
2023-03-29T12:16:53.062Z,9.17
2023-03-29T12:21:00.525Z,8.93
2023-03-29T12:25:08.723Z,8.81
2023-03-29T12:29:31.264Z,8.79
2023-03-29T12:33:46.259Z,8.65
2023-03-29T12:38:01.944Z,8.71
2023-03-29T12:42:14.783Z,8.73
2023-03-29T12:46:20.175Z,8.70
2023-03-29T12:50:28.496Z,8.75
2023-03-29T12:54:34.208Z,8.81
2023-03-29T12:58:53.616Z,8.71
2023-03-29T13:03:04.754Z,8.75
2023-03-29T13:07:15.276Z,8.94
2023-03-29T13:11:29.222Z,9.25
2023-03-29T13:15:36.496Z,9.78
2023-03-29T13:19:48.079Z,9.92
2023-03-29T13:24:00.368Z,9.83
2023-03-29T13:28:13.173Z,9.81
2023-03-29T13:32:33.850Z,9.68
2023-03-29T13:36:52.316Z,9.68
2023-03-29T13:41:04.502Z,9.81
2023-03-29T13:45:17.287Z,9.95
2023-03-29T13:49:24.719Z,9.90
2023-03-29T13:53:32.348Z,9.94
2023-03-29T13:57:40.922Z,10.19
2023-03-29T14:01:50.465Z,10.38
2023-03-29T14:05:59.997Z,10.32
2023-03-29T14:10:03.352Z,10.26
2023-03-29T14:14:08.312Z,10.32
2023-03-29T14:18:11.999Z,10.31
2023-03-29T14:22:18.280Z,10.06
2023-03-29T14:26:21.731Z,10.01
2023-03-29T14:30:28.493Z,9.81
2023-03-29T14:34:31.764Z,9.89
2023-03-29T14:38:37.748Z,10.04
2023-03-29T14:42:41.147Z,10.05
2023-03-29T14:46:46.880Z,9.69
2023-03-29T14:50:50.939Z,9.57
2023-03-29T14:54:57.047Z,9.56
2023-03-29T14:59:04.670Z,9.58
2023-03-29T15:03:14.693Z,9.69
2023-03-29T15:07:17.502Z,9.89
2023-03-29T15:11:24.213Z,9.77
2023-03-29T15:15:27.321Z,9.54
2023-03-29T15:19:31.380Z,9.52
2023-03-29T15:23:39.352Z,9.62
2023-03-29T15:27:44.113Z,9.88
2023-03-29T15:31:55.467Z,9.98
2023-03-29T15:35:58.305Z,10.17
2023-03-29T15:40:05.519Z,10.29
2023-03-29T15:44:09.860Z,10.83
2023-03-29T15:48:16.469Z,11.79
2023-03-29T15:52:19.273Z,12.30
2023-03-29T15:56:22.921Z,11.47
2023-03-29T16:00:27.313Z,10.72
2023-03-29T16:04:29.926Z,10.21
2023-03-29T16:08:33.322Z,10.10
2023-03-29T16:12:38.421Z,9.94
2023-03-29T16:16:42.531Z,9.75
2023-03-29T16:20:45.845Z,9.72
2023-03-29T16:24:48.513Z,9.67
2023-03-29T16:28:51.165Z,9.45
2023-03-29T16:32:55.332Z,9.44
2023-03-29T16:36:58.000Z,9.44
2023-03-29T16:41:01.546Z,9.36
2023-03-29T16:45:04.692Z,9.21
2023-03-29T16:49:08.792Z,9.05
2023-03-29T16:53:11.483Z,8.91
2023-03-29T16:57:14.140Z,8.83
2023-03-29T17:01:19.251Z,8.67
2023-03-29T17:05:23.284Z,8.66
2023-03-29T17:09:28.388Z,8.58
2023-03-29T17:13:32.416Z,8.44
2023-03-29T17:17:35.245Z,8.37
2023-03-29T17:21:39.300Z,8.40
2023-03-29T17:25:44.301Z,8.39
2023-03-29T17:29:46.970Z,8.16
2023-03-29T17:33:51.985Z,7.86
2023-03-29T17:37:56.173Z,7.79
2023-03-29T17:41:58.801Z,7.74
2023-03-29T17:46:01.797Z,7.71
2023-03-29T17:50:05.189Z,7.72
2023-03-29T17:54:09.244Z,7.63
2023-03-29T17:58:11.982Z,7.44
2023-03-29T18:02:17.799Z,7.35
2023-03-29T18:06:20.967Z,7.24
2023-03-29T18:10:25.024Z,7.13
2023-03-29T18:14:27.811Z,7.07
2023-03-29T18:18:30.691Z,7.03
2023-03-29T18:22:34.200Z,7.07
2023-03-29T18:26:38.209Z,7.11
2023-03-29T18:30:40.897Z,7.13
2023-03-29T18:34:43.939Z,7.24
2023-03-29T18:38:46.701Z,7.28
2023-03-29T18:42:51.923Z,7.12
2023-03-29T18:46:55.537Z,7.09
2023-03-29T18:50:59.263Z,6.98
2023-03-29T18:55:02.379Z,6.93
2023-03-29T18:59:06.869Z,7.04
2023-03-29T19:03:10.132Z,7.02
2023-03-29T19:07:13.377Z,7.00
2023-03-29T19:11:16.241Z,7.08
2023-03-29T19:15:20.399Z,6.93
2023-03-29T19:19:26.251Z,7.01
2023-03-29T19:23:28.944Z,7.08
2023-03-29T19:27:31.744Z,7.18
2023-03-29T19:31:37.900Z,7.20
2023-03-29T19:35:41.307Z,7.18
2023-03-29T19:39:44.040Z,7.03
2023-03-29T19:43:46.776Z,6.96
2023-03-29T19:47:54.963Z,6.99
2023-03-29T19:51:58.160Z,6.96
2023-03-29T19:56:02.022Z,6.79
2023-03-29T20:00:08.016Z,6.64
2023-03-29T20:04:12.353Z,6.59
2023-03-29T20:08:15.275Z,6.56
2023-03-29T20:12:18.055Z,6.52
2023-03-29T20:16:25.677Z,6.59
2023-03-29T20:20:29.944Z,6.62
2023-03-29T20:24:34.889Z,6.65
2023-03-29T20:28:37.880Z,6.61
2023-03-29T20:32:41.740Z,6.53
2023-03-29T20:36:46.706Z,6.47
2023-03-29T20:40:49.964Z,6.43
2023-03-29T20:44:53.850Z,6.44
2023-03-29T20:48:56.682Z,6.41
2023-03-29T20:53:04.011Z,6.35
2023-03-29T20:57:07.721Z,6.31
2023-03-29T21:01:13.193Z,6.37
2023-03-29T21:05:16.214Z,6.37
2023-03-29T21:09:23.500Z,6.44
2023-03-29T21:13:26.779Z,6.48
2023-03-29T21:17:29.962Z,6.51
2023-03-29T21:21:33.745Z,6.54
2023-03-29T21:25:38.548Z,6.56
2023-03-29T21:29:41.843Z,6.51
2023-03-29T21:33:44.836Z,6.49
2023-03-29T21:37:47.689Z,6.32
2023-03-29T21:41:52.115Z,6.11
2023-03-29T21:45:55.108Z,6.09
2023-03-29T21:49:57.775Z,5.98
2023-03-29T21:54:00.627Z,5.93
2023-03-29T21:58:04.849Z,5.93
2023-03-29T22:02:07.604Z,5.90
2023-03-29T22:06:14.225Z,5.95
2023-03-29T22:10:22.621Z,6.02
2023-03-29T22:14:29.346Z,5.99
2023-03-29T22:18:42.452Z,5.97
2023-03-29T22:22:49.661Z,5.92
2023-03-29T22:26:52.367Z,5.86
2023-03-29T22:30:56.378Z,5.87
2023-03-29T22:34:59.148Z,5.87
2023-03-29T22:39:01.847Z,5.92
2023-03-29T22:43:05.458Z,5.90
2023-03-29T22:47:10.097Z,5.91
2023-03-29T22:51:12.971Z,5.94
2023-03-29T22:55:15.884Z,5.91
2023-03-29T22:59:18.533Z,5.84
2023-03-29T23:03:23.166Z,5.72
2023-03-29T23:07:25.849Z,5.64
2023-03-29T23:11:28.560Z,5.65
2023-03-29T23:15:32.269Z,5.68
2023-03-29T23:19:36.403Z,5.72
2023-03-29T23:23:39.281Z,5.76
2023-03-29T23:27:43.301Z,5.83
2023-03-29T23:31:47.701Z,5.80
2023-03-29T23:35:51.982Z,5.82
2023-03-29T23:39:54.649Z,5.75
2023-03-29T23:43:57.636Z,5.78
2023-03-29T23:48:00.393Z,5.79
2023-03-29T23:52:04.822Z,5.77
2023-03-29T23:56:08.047Z,5.75
